sensor_id;sensor_type;location;lat;lon;timestamp;temperature;humidity
64561;DHT22;50960;46.838;16.838;2024-01-11T00:01:33;-5.80;99.90
64561;DHT22;50960;46.838;16.838;2024-01-11T00:03:59;-5.80;99.90
64561;DHT22;50960;46.838;16.838;2024-01-11T00:06:26;-5.80;99.90
64561;DHT22;50960;46.838;16.838;2024-01-11T00:08:52;-5.80;99.90
64561;DHT22;50960;46.838;16.838;2024-01-11T00:11:18;-5.80;99.90
64561;DHT22;50960;46.838;16.838;2024-01-11T00:13:45;-5.90;99.90
64561;DHT22;50960;46.838;16.838;2024-01-11T00:16:11;-6.00;99.90
64561;DHT22;50960;46.838;16.838;2024-01-11T00:18:37;-6.00;99.90
64561;DHT22;50960;46.838;16.838;2024-01-11T00:21:04;-6.00;99.90
64561;DHT22;50960;46.838;16.838;2024-01-11T00:23:30;-6.10;99.90
64561;DHT22;50960;46.838;16.838;2024-01-11T00:25:56;-6.00;99.90
64561;DHT22;50960;46.838;16.838;2024-01-11T00:28:23;-6.00;99.90
64561;DHT22;50960;46.838;16.838;2024-01-11T00:30:49;-6.00;99.90
64561;DHT22;50960;46.838;16.838;2024-01-11T00:33:15;-6.00;99.90
64561;DHT22;50960;46.838;16.838;2024-01-11T00:35:41;-6.00;99.90
64561;DHT22;50960;46.838;16.838;2024-01-11T00:38:08;-6.00;99.90
64561;DHT22;50960;46.838;16.838;2024-01-11T00:40:34;-6.00;99.90
64561;DHT22;50960;46.838;16.838;2024-01-11T00:43:00;-6.10;99.90
64561;DHT22;50960;46.838;16.838;2024-01-11T00:45:26;-6.10;99.90
64561;DHT22;50960;46.838;16.838;2024-01-11T00:47:53;-6.10;99.90
64561;DHT22;50960;46.838;16.838;2024-01-11T00:50:19;-6.10;99.90
64561;DHT22;50960;46.838;16.838;2024-01-11T00:52:45;-6.10;99.90
64561;DHT22;50960;46.838;16.838;2024-01-11T00:55:13;-6.10;99.90
64561;DHT22;50960;46.838;16.838;2024-01-11T00:57:39;-6.20;99.90
64561;DHT22;50960;46.838;16.838;2024-01-11T01:00:06;-6.30;99.90
64561;DHT22;50960;46.838;16.838;2024-01-11T01:02:33;-6.30;99.90
64561;DHT22;50960;46.838;16.838;2024-01-11T01:04:59;-6.20;99.90
64561;DHT22;50960;46.838;16.838;2024-01-11T01:07:25;-6.20;99.90
64561;DHT22;50960;46.838;16.838;2024-01-11T01:09:51;-6.20;99.90
64561;DHT22;50960;46.838;16.838;2024-01-11T01:12:18;-6.30;99.90
64561;DHT22;50960;46.838;16.838;2024-01-11T01:14:44;-6.30;99.90
64561;DHT22;50960;46.838;16.838;2024-01-11T01:17:10;-6.30;99.90
64561;DHT22;50960;46.838;16.838;2024-01-11T01:19:36;-6.30;99.90
64561;DHT22;50960;46.838;16.838;2024-01-11T01:22:03;-6.30;99.90
64561;DHT22;50960;46.838;16.838;2024-01-11T01:24:31;-6.40;99.90
64561;DHT22;50960;46.838;16.838;2024-01-11T01:26:57;-6.40;99.90
64561;DHT22;50960;46.838;16.838;2024-01-11T01:29:23;-6.40;99.90
64561;DHT22;50960;46.838;16.838;2024-01-11T01:31:50;-6.30;99.90
64561;DHT22;50960;46.838;16.838;2024-01-11T01:34:17;-6.30;99.90
64561;DHT22;50960;46.838;16.838;2024-01-11T01:36:43;-6.40;99.90
64561;DHT22;50960;46.838;16.838;2024-01-11T01:39:09;-6.50;99.90
64561;DHT22;50960;46.838;16.838;2024-01-11T01:41:35;-6.50;99.90
64561;DHT22;50960;46.838;16.838;2024-01-11T01:44:02;-6.50;99.90
64561;DHT22;50960;46.838;16.838;2024-01-11T01:46:29;-6.50;99.90
64561;DHT22;50960;46.838;16.838;2024-01-11T01:48:57;-6.60;99.90
64561;DHT22;50960;46.838;16.838;2024-01-11T01:51:25;-6.50;99.90
64561;DHT22;50960;46.838;16.838;2024-01-11T01:53:53;-6.60;99.90
64561;DHT22;50960;46.838;16.838;2024-01-11T01:56:21;-6.70;99.90
64561;DHT22;50960;46.838;16.838;2024-01-11T01:58:48;-6.60;99.90
64561;DHT22;50960;46.838;16.838;2024-01-11T02:01:18;-6.60;99.90
64561;DHT22;50960;46.838;16.838;2024-01-11T02:03:46;-6.60;99.90
64561;DHT22;50960;46.838;16.838;2024-01-11T02:06:14;-6.50;99.90
64561;DHT22;50960;46.838;16.838;2024-01-11T02:08:43;-6.60;99.90
64561;DHT22;50960;46.838;16.838;2024-01-11T02:11:10;-6.60;99.90
64561;DHT22;50960;46.838;16.838;2024-01-11T02:13:37;-6.60;99.90
64561;DHT22;50960;46.838;16.838;2024-01-11T02:16:04;-6.60;99.90
64561;DHT22;50960;46.838;16.838;2024-01-11T02:18:31;-6.70;99.90
64561;DHT22;50960;46.838;16.838;2024-01-11T02:20:57;-6.60;99.90
64561;DHT22;50960;46.838;16.838;2024-01-11T02:23:25;-6.70;99.90
64561;DHT22;50960;46.838;16.838;2024-01-11T02:25:52;-6.60;99.90
64561;DHT22;50960;46.838;16.838;2024-01-11T02:28:19;-6.60;99.90
64561;DHT22;50960;46.838;16.838;2024-01-11T02:30:45;-6.60;99.90
64561;DHT22;50960;46.838;16.838;2024-01-11T02:33:11;-6.70;99.90
64561;DHT22;50960;46.838;16.838;2024-01-11T02:35:42;-6.70;99.90
64561;DHT22;50960;46.838;16.838;2024-01-11T02:38:09;-6.70;99.90
64561;DHT22;50960;46.838;16.838;2024-01-11T02:40:37;-6.70;99.90
64561;DHT22;50960;46.838;16.838;2024-01-11T02:43:09;-6.70;99.90
64561;DHT22;50960;46.838;16.838;2024-01-11T02:45:36;-6.80;99.90
64561;DHT22;50960;46.838;16.838;2024-01-11T02:48:03;-6.90;99.90
64561;DHT22;50960;46.838;16.838;2024-01-11T02:50:29;-6.80;99.90
64561;DHT22;50960;46.838;16.838;2024-01-11T02:52:56;-6.90;99.90
64561;DHT22;50960;46.838;16.838;2024-01-11T02:55:22;-6.80;99.90
64561;DHT22;50960;46.838;16.838;2024-01-11T02:57:48;-6.80;99.90
64561;DHT22;50960;46.838;16.838;2024-01-11T03:00:15;-6.80;99.90
64561;DHT22;50960;46.838;16.838;2024-01-11T03:02:41;-6.90;99.90
64561;DHT22;50960;46.838;16.838;2024-01-11T03:05:08;-6.90;99.90
64561;DHT22;50960;46.838;16.838;2024-01-11T03:07:35;-6.90;99.90
64561;DHT22;50960;46.838;16.838;2024-01-11T03:10:01;-6.90;99.90
64561;DHT22;50960;46.838;16.838;2024-01-11T03:12:29;-6.90;99.90
64561;DHT22;50960;46.838;16.838;2024-01-11T03:14:55;-6.90;99.90
64561;DHT22;50960;46.838;16.838;2024-01-11T03:17:21;-6.80;99.90
64561;DHT22;50960;46.838;16.838;2024-01-11T03:19:47;-6.90;99.90
64561;DHT22;50960;46.838;16.838;2024-01-11T03:22:14;-6.90;99.90
64561;DHT22;50960;46.838;16.838;2024-01-11T03:24:40;-6.90;99.90
64561;DHT22;50960;46.838;16.838;2024-01-11T03:27:06;-6.80;99.90
64561;DHT22;50960;46.838;16.838;2024-01-11T03:29:33;-6.90;99.90
64561;DHT22;50960;46.838;16.838;2024-01-11T03:31:59;-7.00;99.90
64561;DHT22;50960;46.838;16.838;2024-01-11T03:34:26;-7.00;99.90
64561;DHT22;50960;46.838;16.838;2024-01-11T03:36:52;-6.90;99.90
64561;DHT22;50960;46.838;16.838;2024-01-11T03:39:18;-6.90;99.90
64561;DHT22;50960;46.838;16.838;2024-01-11T03:41:45;-7.00;99.90
64561;DHT22;50960;46.838;16.838;2024-01-11T03:44:12;-7.00;99.90
64561;DHT22;50960;46.838;16.838;2024-01-11T03:46:40;-7.00;99.90
64561;DHT22;50960;46.838;16.838;2024-01-11T03:49:09;-7.00;99.90
64561;DHT22;50960;46.838;16.838;2024-01-11T03:51:36;-7.00;99.90
64561;DHT22;50960;46.838;16.838;2024-01-11T03:54:04;-7.00;99.90
64561;DHT22;50960;46.838;16.838;2024-01-11T03:56:30;-7.10;99.90
64561;DHT22;50960;46.838;16.838;2024-01-11T03:58:57;-7.10;99.90
64561;DHT22;50960;46.838;16.838;2024-01-11T04:01:23;-7.10;99.90
64561;DHT22;50960;46.838;16.838;2024-01-11T04:03:49;-7.00;99.90
64561;DHT22;50960;46.838;16.838;2024-01-11T04:06:21;-7.00;99.90
64561;DHT22;50960;46.838;16.838;2024-01-11T04:08:48;-7.00;99.90
64561;DHT22;50960;46.838;16.838;2024-01-11T04:11:14;-7.00;99.90
64561;DHT22;50960;46.838;16.838;2024-01-11T04:13:40;-7.10;99.90
64561;DHT22;50960;46.838;16.838;2024-01-11T04:16:07;-7.20;99.90
64561;DHT22;50960;46.838;16.838;2024-01-11T04:18:33;-7.20;99.90
64561;DHT22;50960;46.838;16.838;2024-01-11T04:21:00;-7.20;99.90
64561;DHT22;50960;46.838;16.838;2024-01-11T04:23:26;-7.20;99.90
64561;DHT22;50960;46.838;16.838;2024-01-11T04:25:52;-7.20;99.90
64561;DHT22;50960;46.838;16.838;2024-01-11T04:28:18;-7.20;99.90
64561;DHT22;50960;46.838;16.838;2024-01-11T04:30:45;-7.20;99.90
64561;DHT22;50960;46.838;16.838;2024-01-11T04:33:11;-7.20;99.90
64561;DHT22;50960;46.838;16.838;2024-01-11T04:35:37;-7.20;99.90
64561;DHT22;50960;46.838;16.838;2024-01-11T04:38:04;-7.20;99.90
64561;DHT22;50960;46.838;16.838;2024-01-11T04:40:30;-7.30;99.90
64561;DHT22;50960;46.838;16.838;2024-01-11T04:42:57;-7.30;99.90
64561;DHT22;50960;46.838;16.838;2024-01-11T04:45:23;-7.20;99.90
64561;DHT22;50960;46.838;16.838;2024-01-11T04:47:53;-7.20;99.90
64561;DHT22;50960;46.838;16.838;2024-01-11T04:50:19;-7.20;99.90
64561;DHT22;50960;46.838;16.838;2024-01-11T04:52:45;-7.30;99.90
64561;DHT22;50960;46.838;16.838;2024-01-11T04:55:12;-7.30;99.90
64561;DHT22;50960;46.838;16.838;2024-01-11T04:57:38;-7.30;99.90
64561;DHT22;50960;46.838;16.838;2024-01-11T05:00:05;-7.30;99.90
64561;DHT22;50960;46.838;16.838;2024-01-11T05:02:31;-7.30;99.90
64561;DHT22;50960;46.838;16.838;2024-01-11T05:04:58;-7.30;99.90
64561;DHT22;50960;46.838;16.838;2024-01-11T05:07:24;-7.30;99.90
64561;DHT22;50960;46.838;16.838;2024-01-11T05:09:50;-7.40;99.90
64561;DHT22;50960;46.838;16.838;2024-01-11T05:12:17;-7.30;99.90
64561;DHT22;50960;46.838;16.838;2024-01-11T05:14:43;-7.30;99.90
64561;DHT22;50960;46.838;16.838;2024-01-11T05:17:09;-7.40;99.90
64561;DHT22;50960;46.838;16.838;2024-01-11T05:19:36;-7.30;99.90
64561;DHT22;50960;46.838;16.838;2024-01-11T05:22:02;-7.40;99.90
64561;DHT22;50960;46.838;16.838;2024-01-11T05:24:29;-7.40;99.90
64561;DHT22;50960;46.838;16.838;2024-01-11T05:26:55;-7.40;99.90
64561;DHT22;50960;46.838;16.838;2024-01-11T05:29:21;-7.40;99.90
64561;DHT22;50960;46.838;16.838;2024-01-11T05:31:47;-7.30;99.90
64561;DHT22;50960;46.838;16.838;2024-01-11T05:34:14;-7.30;99.90
64561;DHT22;50960;46.838;16.838;2024-01-11T05:36:40;-7.30;99.90
64561;DHT22;50960;46.838;16.838;2024-01-11T05:39:06;-7.30;99.90
64561;DHT22;50960;46.838;16.838;2024-01-11T05:41:33;-7.30;99.90
64561;DHT22;50960;46.838;16.838;2024-01-11T05:43:59;-7.40;99.90
64561;DHT22;50960;46.838;16.838;2024-01-11T05:46:25;-7.50;99.90
64561;DHT22;50960;46.838;16.838;2024-01-11T05:48:52;-7.50;99.90
64561;DHT22;50960;46.838;16.838;2024-01-11T05:51:18;-7.50;99.90
64561;DHT22;50960;46.838;16.838;2024-01-11T05:53:45;-7.50;99.90
64561;DHT22;50960;46.838;16.838;2024-01-11T05:56:11;-7.60;99.90
64561;DHT22;50960;46.838;16.838;2024-01-11T05:58:37;-7.60;99.90
64561;DHT22;50960;46.838;16.838;2024-01-11T06:01:05;-7.60;99.90
64561;DHT22;50960;46.838;16.838;2024-01-11T06:03:31;-7.50;99.90
64561;DHT22;50960;46.838;16.838;2024-01-11T06:06:00;-7.50;99.90
64561;DHT22;50960;46.838;16.838;2024-01-11T06:08:29;-7.50;99.90
64561;DHT22;50960;46.838;16.838;2024-01-11T06:10:55;-7.40;99.90
64561;DHT22;50960;46.838;16.838;2024-01-11T15:50:52;-0.30;99.90
64561;DHT22;50960;46.838;16.838;2024-01-11T15:53:23;-0.30;99.90
64561;DHT22;50960;46.838;16.838;2024-01-11T15:55:49;-0.40;99.90
64561;DHT22;50960;46.838;16.838;2024-01-11T15:58:16;-0.50;99.90
64561;DHT22;50960;46.838;16.838;2024-01-11T16:00:44;-0.50;99.90
64561;DHT22;50960;46.838;16.838;2024-01-11T16:03:10;-0.60;99.90
64561;DHT22;50960;46.838;16.838;2024-01-11T16:05:36;-0.60;99.90
64561;DHT22;50960;46.838;16.838;2024-01-11T16:08:03;-0.60;99.90
64561;DHT22;50960;46.838;16.838;2024-01-11T16:10:29;-0.70;99.90
64561;DHT22;50960;46.838;16.838;2024-01-11T16:12:56;-0.70;99.90
64561;DHT22;50960;46.838;16.838;2024-01-11T16:15:22;-0.70;99.90
64561;DHT22;50960;46.838;16.838;2024-01-11T16:17:48;-0.70;99.90
64561;DHT22;50960;46.838;16.838;2024-01-11T16:20:14;-0.70;99.90
64561;DHT22;50960;46.838;16.838;2024-01-11T16:22:41;-0.60;99.90
64561;DHT22;50960;46.838;16.838;2024-01-11T16:25:07;-0.70;99.90
64561;DHT22;50960;46.838;16.838;2024-01-11T16:27:34;-0.90;99.90
64561;DHT22;50960;46.838;16.838;2024-01-11T16:30:00;-1.00;99.90
64561;DHT22;50960;46.838;16.838;2024-01-11T16:32:27;-1.00;99.90
64561;DHT22;50960;46.838;16.838;2024-01-11T16:34:53;-1.10;99.90
64561;DHT22;50960;46.838;16.838;2024-01-11T16:37:19;-1.10;99.90
64561;DHT22;50960;46.838;16.838;2024-01-11T16:39:47;-1.00;99.90
64561;DHT22;50960;46.838;16.838;2024-01-11T16:42:15;-1.00;99.90
64561;DHT22;50960;46.838;16.838;2024-01-11T16:44:41;-1.10;99.90
64561;DHT22;50960;46.838;16.838;2024-01-11T16:47:08;-1.10;99.90
64561;DHT22;50960;46.838;16.838;2024-01-11T16:49:34;-1.10;99.90
64561;DHT22;50960;46.838;16.838;2024-01-11T16:52:01;-1.20;99.90
64561;DHT22;50960;46.838;16.838;2024-01-11T16:54:30;-1.20;99.90
64561;DHT22;50960;46.838;16.838;2024-01-11T16:56:58;-1.20;99.90
64561;DHT22;50960;46.838;16.838;2024-01-11T16:59:24;-1.20;99.90
64561;DHT22;50960;46.838;16.838;2024-01-11T17:01:50;-1.20;99.90
64561;DHT22;50960;46.838;16.838;2024-01-11T17:04:17;-1.00;99.90
64561;DHT22;50960;46.838;16.838;2024-01-11T17:06:43;-1.00;99.90
64561;DHT22;50960;46.838;16.838;2024-01-11T17:09:09;-0.90;99.90
64561;DHT22;50960;46.838;16.838;2024-01-11T17:11:39;-1.00;99.90
64561;DHT22;50960;46.838;16.838;2024-01-11T17:14:07;-1.00;99.90
64561;DHT22;50960;46.838;16.838;2024-01-11T17:16:33;-0.90;99.90
64561;DHT22;50960;46.838;16.838;2024-01-11T17:18:59;-0.90;99.90
64561;DHT22;50960;46.838;16.838;2024-01-11T17:21:28;-0.90;99.90
64561;DHT22;50960;46.838;16.838;2024-01-11T17:23:56;-0.90;99.90
64561;DHT22;50960;46.838;16.838;2024-01-11T17:26:22;-1.00;99.90
64561;DHT22;50960;46.838;16.838;2024-01-11T17:28:49;-1.10;99.90
64561;DHT22;50960;46.838;16.838;2024-01-11T17:31:15;-1.10;99.90
64561;DHT22;50960;46.838;16.838;2024-01-11T17:33:41;-1.20;99.90
64561;DHT22;50960;46.838;16.838;2024-01-11T17:36:08;-1.30;99.90
64561;DHT22;50960;46.838;16.838;2024-01-11T17:38:34;-1.30;99.90
64561;DHT22;50960;46.838;16.838;2024-01-11T17:41:01;-1.40;99.90
64561;DHT22;50960;46.838;16.838;2024-01-11T17:43:27;-1.40;99.90
64561;DHT22;50960;46.838;16.838;2024-01-11T17:45:54;-1.40;99.90
64561;DHT22;50960;46.838;16.838;2024-01-11T17:48:20;-1.40;99.90
64561;DHT22;50960;46.838;16.838;2024-01-11T17:50:47;-1.40;99.90
64561;DHT22;50960;46.838;16.838;2024-01-11T17:53:14;-1.40;99.90
64561;DHT22;50960;46.838;16.838;2024-01-11T17:55:41;-1.40;99.90
64561;DHT22;50960;46.838;16.838;2024-01-11T17:58:08;-1.30;99.90
64561;DHT22;50960;46.838;16.838;2024-01-11T18:00:35;-1.30;99.90
64561;DHT22;50960;46.838;16.838;2024-01-11T18:03:01;-1.30;99.90
64561;DHT22;50960;46.838;16.838;2024-01-11T18:05:31;-1.40;99.90
64561;DHT22;50960;46.838;16.838;2024-01-11T18:07:58;-1.40;99.90
64561;DHT22;50960;46.838;16.838;2024-01-11T18:10:24;-1.40;99.90
64561;DHT22;50960;46.838;16.838;2024-01-11T18:12:51;-1.40;99.90
64561;DHT22;50960;46.838;16.838;2024-01-11T18:15:18;-1.40;99.90
64561;DHT22;50960;46.838;16.838;2024-01-11T18:17:45;-1.20;99.90
64561;DHT22;50960;46.838;16.838;2024-01-11T18:20:11;-1.20;99.90
64561;DHT22;50960;46.838;16.838;2024-01-11T18:22:37;-1.10;99.90
64561;DHT22;50960;46.838;16.838;2024-01-11T18:25:04;-1.10;99.90
64561;DHT22;50960;46.838;16.838;2024-01-11T18:27:30;-1.10;99.90
64561;DHT22;50960;46.838;16.838;2024-01-11T18:29:56;-1.10;99.90
64561;DHT22;50960;46.838;16.838;2024-01-11T18:32:23;-1.10;99.90
64561;DHT22;50960;46.838;16.838;2024-01-11T18:34:49;-1.10;99.90
64561;DHT22;50960;46.838;16.838;2024-01-11T18:37:16;-1.20;99.90
64561;DHT22;50960;46.838;16.838;2024-01-11T18:39:42;-1.20;99.90
64561;DHT22;50960;46.838;16.838;2024-01-11T18:42:09;-1.20;99.90
64561;DHT22;50960;46.838;16.838;2024-01-11T18:44:39;-1.20;99.90
64561;DHT22;50960;46.838;16.838;2024-01-11T18:47:05;-1.10;99.90
64561;DHT22;50960;46.838;16.838;2024-01-11T18:49:32;-1.10;99.90
64561;DHT22;50960;46.838;16.838;2024-01-11T18:51:59;-1.10;99.90
64561;DHT22;50960;46.838;16.838;2024-01-11T18:54:25;-1.10;99.90
64561;DHT22;50960;46.838;16.838;2024-01-11T18:56:52;-1.10;99.90
64561;DHT22;50960;46.838;16.838;2024-01-11T18:59:18;-1.80;99.90
64561;DHT22;50960;46.838;16.838;2024-01-11T19:01:45;-1.00;99.90
64561;DHT22;50960;46.838;16.838;2024-01-11T19:04:14;-1.00;99.90
64561;DHT22;50960;46.838;16.838;2024-01-11T19:06:41;-1.00;99.90
64561;DHT22;50960;46.838;16.838;2024-01-11T19:09:07;-0.90;99.90
64561;DHT22;50960;46.838;16.838;2024-01-11T19:11:34;-0.80;99.90
64561;DHT22;50960;46.838;16.838;2024-01-11T19:14:00;-0.80;99.90
64561;DHT22;50960;46.838;16.838;2024-01-11T19:16:27;-0.80;99.90
64561;DHT22;50960;46.838;16.838;2024-01-11T19:18:53;-0.80;99.90
64561;DHT22;50960;46.838;16.838;2024-01-11T19:21:19;-0.70;99.90
64561;DHT22;50960;46.838;16.838;2024-01-11T19:23:46;-0.70;99.90
64561;DHT22;50960;46.838;16.838;2024-01-11T19:26:12;-0.70;99.90
64561;DHT22;50960;46.838;16.838;2024-01-11T19:28:39;-0.70;99.90
64561;DHT22;50960;46.838;16.838;2024-01-11T19:31:05;-0.70;99.90
64561;DHT22;50960;46.838;16.838;2024-01-11T19:33:31;-0.80;99.90
64561;DHT22;50960;46.838;16.838;2024-01-11T19:36:01;-0.80;99.90
64561;DHT22;50960;46.838;16.838;2024-01-11T19:38:27;-0.80;99.90
64561;DHT22;50960;46.838;16.838;2024-01-11T19:40:53;-0.80;99.90
64561;DHT22;50960;46.838;16.838;2024-01-11T19:43:20;-0.80;99.90
64561;DHT22;50960;46.838;16.838;2024-01-11T19:45:52;-0.80;99.90
64561;DHT22;50960;46.838;16.838;2024-01-11T19:48:18;-0.80;99.90
64561;DHT22;50960;46.838;16.838;2024-01-11T19:50:45;-0.80;99.90
64561;DHT22;50960;46.838;16.838;2024-01-11T19:53:13;-0.80;99.90
64561;DHT22;50960;46.838;16.838;2024-01-11T19:55:41;-0.90;99.90
64561;DHT22;50960;46.838;16.838;2024-01-11T19:58:07;-0.80;99.90
64561;DHT22;50960;46.838;16.838;2024-01-11T20:00:33;-0.80;99.90
64561;DHT22;50960;46.838;16.838;2024-01-11T20:03:01;-0.80;99.90
64561;DHT22;50960;46.838;16.838;2024-01-11T20:05:27;-0.80;99.90
64561;DHT22;50960;46.838;16.838;2024-01-11T20:07:53;-0.70;99.90
64561;DHT22;50960;46.838;16.838;2024-01-11T20:10:20;-0.80;99.90
64561;DHT22;50960;46.838;16.838;2024-01-11T20:12:47;-0.70;99.90
64561;DHT22;50960;46.838;16.838;2024-01-11T20:15:14;-0.70;99.90
64561;DHT22;50960;46.838;16.838;2024-01-11T20:17:40;-0.60;99.90
64561;DHT22;50960;46.838;16.838;2024-01-11T20:20:06;-0.60;99.90
64561;DHT22;50960;46.838;16.838;2024-01-11T20:22:34;-0.60;99.90
64561;DHT22;50960;46.838;16.838;2024-01-11T20:25:00;-0.60;99.90
64561;DHT22;50960;46.838;16.838;2024-01-11T20:27:26;-0.60;99.90
64561;DHT22;50960;46.838;16.838;2024-01-11T20:29:53;-0.70;99.90
64561;DHT22;50960;46.838;16.838;2024-01-11T20:32:19;-0.60;99.90
64561;DHT22;50960;46.838;16.838;2024-01-11T20:34:45;-0.70;99.90
64561;DHT22;50960;46.838;16.838;2024-01-11T20:37:12;-0.60;99.90
64561;DHT22;50960;46.838;16.838;2024-01-11T20:39:39;-0.50;99.90
64561;DHT22;50960;46.838;16.838;2024-01-11T20:42:06;-0.40;99.90
64561;DHT22;50960;46.838;16.838;2024-01-11T20:44:35;-0.50;99.90
64561;DHT22;50960;46.838;16.838;2024-01-11T20:47:02;-0.70;99.90
64561;DHT22;50960;46.838;16.838;2024-01-11T20:49:29;-0.60;99.90
64561;DHT22;50960;46.838;16.838;2024-01-11T20:51:56;-0.50;99.90
64561;DHT22;50960;46.838;16.838;2024-01-11T20:54:25;-0.50;99.90
64561;DHT22;50960;46.838;16.838;2024-01-11T20:56:51;-0.40;99.90
64561;DHT22;50960;46.838;16.838;2024-01-11T20:59:17;-0.30;99.90
64561;DHT22;50960;46.838;16.838;2024-01-11T21:01:44;-0.20;99.90
64561;DHT22;50960;46.838;16.838;2024-01-11T21:04:10;-0.10;99.90
64561;DHT22;50960;46.838;16.838;2024-01-11T21:06:36;-0.10;99.90
64561;DHT22;50960;46.838;16.838;2024-01-11T21:09:03;0.00;99.90
64561;DHT22;50960;46.838;16.838;2024-01-11T21:11:29;0.00;99.90
64561;DHT22;50960;46.838;16.838;2024-01-11T21:13:55;0.00;99.90
64561;DHT22;50960;46.838;16.838;2024-01-11T21:16:22;0.10;99.90
64561;DHT22;50960;46.838;16.838;2024-01-11T21:18:51;0.00;99.90
64561;DHT22;50960;46.838;16.838;2024-01-11T21:21:20;0.00;99.90
64561;DHT22;50960;46.838;16.838;2024-01-11T21:23:49;0.10;99.90
64561;DHT22;50960;46.838;16.838;2024-01-11T21:26:22;0.20;99.90
64561;DHT22;50960;46.838;16.838;2024-01-11T21:28:49;0.20;99.90
64561;DHT22;50960;46.838;16.838;2024-01-11T21:31:16;0.20;99.90
64561;DHT22;50960;46.838;16.838;2024-01-11T21:33:43;0.20;99.90
64561;DHT22;50960;46.838;16.838;2024-01-11T21:36:10;0.20;99.90
64561;DHT22;50960;46.838;16.838;2024-01-11T21:38:36;0.30;99.90
64561;DHT22;50960;46.838;16.838;2024-01-11T21:41:03;0.40;99.90
64561;DHT22;50960;46.838;16.838;2024-01-11T21:43:29;0.20;99.90
64561;DHT22;50960;46.838;16.838;2024-01-11T21:45:57;0.20;99.90
64561;DHT22;50960;46.838;16.838;2024-01-11T21:48:24;0.10;99.90
64561;DHT22;50960;46.838;16.838;2024-01-11T21:50:50;-0.10;99.90
64561;DHT22;50960;46.838;16.838;2024-01-11T21:53:16;-0.30;99.90
64561;DHT22;50960;46.838;16.838;2024-01-11T21:55:43;-0.40;99.90
64561;DHT22;50960;46.838;16.838;2024-01-11T21:58:09;-0.40;99.90
64561;DHT22;50960;46.838;16.838;2024-01-11T22:00:36;-0.50;99.90
64561;DHT22;50960;46.838;16.838;2024-01-11T22:03:02;-0.50;99.90
64561;DHT22;50960;46.838;16.838;2024-01-11T22:05:28;-0.60;99.90
64561;DHT22;50960;46.838;16.838;2024-01-11T22:07:54;-0.80;99.90
64561;DHT22;50960;46.838;16.838;2024-01-11T22:10:21;-0.80;99.90
64561;DHT22;50960;46.838;16.838;2024-01-11T22:12:47;-0.80;99.90
64561;DHT22;50960;46.838;16.838;2024-01-11T22:15:13;-0.80;99.90
64561;DHT22;50960;46.838;16.838;2024-01-11T22:17:40;-0.80;99.90
64561;DHT22;50960;46.838;16.838;2024-01-11T22:20:06;-0.90;99.90
64561;DHT22;50960;46.838;16.838;2024-01-11T22:22:33;-1.00;99.90
64561;DHT22;50960;46.838;16.838;2024-01-11T22:24:59;-1.00;99.90
64561;DHT22;50960;46.838;16.838;2024-01-11T22:27:25;-1.00;99.90
64561;DHT22;50960;46.838;16.838;2024-01-11T22:29:53;-1.10;99.90
64561;DHT22;50960;46.838;16.838;2024-01-11T22:32:20;-1.00;99.90
64561;DHT22;50960;46.838;16.838;2024-01-11T22:34:46;-1.10;99.90
64561;DHT22;50960;46.838;16.838;2024-01-11T22:37:12;-1.10;99.90
64561;DHT22;50960;46.838;16.838;2024-01-11T22:39:38;-1.20;99.90
64561;DHT22;50960;46.838;16.838;2024-01-11T22:42:05;-1.30;99.90
64561;DHT22;50960;46.838;16.838;2024-01-11T22:44:31;-1.40;99.90
64561;DHT22;50960;46.838;16.838;2024-01-11T22:46:57;-1.40;99.90
64561;DHT22;50960;46.838;16.838;2024-01-11T22:49:24;-1.50;99.90
64561;DHT22;50960;46.838;16.838;2024-01-11T22:51:51;-1.50;99.90
64561;DHT22;50960;46.838;16.838;2024-01-11T22:54:17;-1.50;99.90
64561;DHT22;50960;46.838;16.838;2024-01-11T22:56:43;-1.60;99.90
64561;DHT22;50960;46.838;16.838;2024-01-11T22:59:09;-1.60;99.90
64561;DHT22;50960;46.838;16.838;2024-01-11T23:01:36;-1.70;99.90
64561;DHT22;50960;46.838;16.838;2024-01-11T23:04:06;-1.80;99.90
64561;DHT22;50960;46.838;16.838;2024-01-11T23:06:32;-1.80;99.90
64561;DHT22;50960;46.838;16.838;2024-01-11T23:09:01;-1.90;99.90
64561;DHT22;50960;46.838;16.838;2024-01-11T23:11:27;-1.90;99.90
64561;DHT22;50960;46.838;16.838;2024-01-11T23:13:53;-2.00;99.90
64561;DHT22;50960;46.838;16.838;2024-01-11T23:16:19;-2.00;99.90
64561;DHT22;50960;46.838;16.838;2024-01-11T23:18:46;-1.90;99.90
64561;DHT22;50960;46.838;16.838;2024-01-11T23:21:12;-2.10;99.90
64561;DHT22;50960;46.838;16.838;2024-01-11T23:23:38;-2.00;99.90
64561;DHT22;50960;46.838;16.838;2024-01-11T23:26:05;-2.00;99.90
64561;DHT22;50960;46.838;16.838;2024-01-11T23:28:31;-2.10;99.90
64561;DHT22;50960;46.838;16.838;2024-01-11T23:30:57;-2.20;99.90
64561;DHT22;50960;46.838;16.838;2024-01-11T23:33:24;-2.20;99.90
64561;DHT22;50960;46.838;16.838;2024-01-11T23:35:50;-2.20;99.90
64561;DHT22;50960;46.838;16.838;2024-01-11T23:38:16;-2.20;99.90
64561;DHT22;50960;46.838;16.838;2024-01-11T23:40:43;-2.10;99.90
64561;DHT22;50960;46.838;16.838;2024-01-11T23:43:09;-2.10;99.90
64561;DHT22;50960;46.838;16.838;2024-01-11T23:45:35;-2.10;99.90
64561;DHT22;50960;46.838;16.838;2024-01-11T23:48:01;-2.10;99.90
64561;DHT22;50960;46.838;16.838;2024-01-11T23:50:27;-2.10;99.90
64561;DHT22;50960;46.838;16.838;2024-01-11T23:52:54;-2.10;99.90
64561;DHT22;50960;46.838;16.838;2024-01-11T23:55:20;-2.10;99.90
64561;DHT22;50960;46.838;16.838;2024-01-11T23:57:46;-2.10;99.90
